sensor_id;sensor_type;location;lat;lon;timestamp;P1;durP1;ratioP1;P2;durP2;ratioP2
19599;SDS011;9947;57.722;12.012;2022-11-20T00:00:38;4.70;;;3.03;;
19599;SDS011;9947;57.722;12.012;2022-11-20T00:03:06;2.93;;;2.60;;
19599;SDS011;9947;57.722;12.012;2022-11-20T00:05:33;2.60;;;2.40;;
19599;SDS011;9947;57.722;12.012;2022-11-20T00:07:59;2.90;;;2.70;;
19599;SDS011;9947;57.722;12.012;2022-11-20T00:10:26;4.63;;;2.70;;
19599;SDS011;9947;57.722;12.012;2022-11-20T00:12:53;2.67;;;2.47;;
19599;SDS011;9947;57.722;12.012;2022-11-20T00:15:20;3.03;;;2.73;;
19599;SDS011;9947;57.722;12.012;2022-11-20T00:17:46;2.73;;;2.53;;
19599;SDS011;9947;57.722;12.012;2022-11-20T00:20:15;5.40;;;2.60;;
19599;SDS011;9947;57.722;12.012;2022-11-20T00:22:42;3.10;;;2.90;;
19599;SDS011;9947;57.722;12.012;2022-11-20T00:25:09;7.63;;;2.80;;
19599;SDS011;9947;57.722;12.012;2022-11-20T00:27:36;2.90;;;2.60;;
19599;SDS011;9947;57.722;12.012;2022-11-20T00:30:04;2.90;;;2.67;;
19599;SDS011;9947;57.722;12.012;2022-11-20T00:32:31;2.87;;;2.67;;
19599;SDS011;9947;57.722;12.012;2022-11-20T00:34:58;3.33;;;2.70;;
19599;SDS011;9947;57.722;12.012;2022-11-20T00:37:26;3.50;;;2.73;;
19599;SDS011;9947;57.722;12.012;2022-11-20T00:39:53;2.80;;;2.60;;
19599;SDS011;9947;57.722;12.012;2022-11-20T00:42:20;3.23;;;2.93;;
19599;SDS011;9947;57.722;12.012;2022-11-20T00:44:47;2.60;;;2.40;;
19599;SDS011;9947;57.722;12.012;2022-11-20T00:47:13;2.87;;;2.60;;
19599;SDS011;9947;57.722;12.012;2022-11-20T00:49:40;2.63;;;2.43;;
19599;SDS011;9947;57.722;12.012;2022-11-20T00:52:07;3.20;;;2.70;;
19599;SDS011;9947;57.722;12.012;2022-11-20T00:54:35;2.70;;;2.50;;
19599;SDS011;9947;57.722;12.012;2022-11-20T00:57:02;2.70;;;2.50;;
19599;SDS011;9947;57.722;12.012;2022-11-20T00:59:29;2.90;;;2.70;;
19599;SDS011;9947;57.722;12.012;2022-11-20T01:01:55;2.70;;;2.50;;
19599;SDS011;9947;57.722;12.012;2022-11-20T01:04:22;3.40;;;2.50;;
19599;SDS011;9947;57.722;12.012;2022-11-20T01:06:49;5.27;;;2.60;;
19599;SDS011;9947;57.722;12.012;2022-11-20T01:09:16;3.87;;;2.77;;
19599;SDS011;9947;57.722;12.012;2022-11-20T01:11:44;3.20;;;2.90;;
19599;SDS011;9947;57.722;12.012;2022-11-20T01:14:12;2.50;;;2.30;;
19599;SDS011;9947;57.722;12.012;2022-11-20T01:16:41;3.70;;;2.83;;
19599;SDS011;9947;57.722;12.012;2022-11-20T01:19:10;3.40;;;2.83;;
19599;SDS011;9947;57.722;12.012;2022-11-20T01:21:39;2.70;;;2.50;;
19599;SDS011;9947;57.722;12.012;2022-11-20T01:24:08;3.73;;;3.00;;
19599;SDS011;9947;57.722;12.012;2022-11-20T01:26:39;3.93;;;3.00;;
19599;SDS011;9947;57.722;12.012;2022-11-20T01:29:08;3.03;;;2.60;;
19599;SDS011;9947;57.722;12.012;2022-11-20T01:31:38;3.53;;;3.00;;
19599;SDS011;9947;57.722;12.012;2022-11-20T01:34:06;4.00;;;3.57;;
19599;SDS011;9947;57.722;12.012;2022-11-20T01:36:36;3.03;;;2.73;;
19599;SDS011;9947;57.722;12.012;2022-11-20T01:39:04;4.03;;;3.00;;
19599;SDS011;9947;57.722;12.012;2022-11-20T01:41:32;2.70;;;2.50;;
19599;SDS011;9947;57.722;12.012;2022-11-20T01:44:21;3.40;;;2.80;;
19599;SDS011;9947;57.722;12.012;2022-11-20T01:46:52;3.83;;;3.03;;
19599;SDS011;9947;57.722;12.012;2022-11-20T01:49:23;3.93;;;2.97;;
19599;SDS011;9947;57.722;12.012;2022-11-20T01:51:54;3.97;;;2.83;;
19599;SDS011;9947;57.722;12.012;2022-11-20T01:54:25;3.23;;;2.90;;
19599;SDS011;9947;57.722;12.012;2022-11-20T01:56:57;3.30;;;2.97;;
19599;SDS011;9947;57.722;12.012;2022-11-20T01:59:28;4.37;;;3.53;;
19599;SDS011;9947;57.722;12.012;2022-11-20T02:01:58;3.77;;;2.80;;
19599;SDS011;9947;57.722;12.012;2022-11-20T02:04:25;4.80;;;3.00;;
19599;SDS011;9947;57.722;12.012;2022-11-20T02:06:53;3.97;;;3.03;;
19599;SDS011;9947;57.722;12.012;2022-11-20T02:09:25;3.70;;;3.10;;
19599;SDS011;9947;57.722;12.012;2022-11-20T02:11:52;3.23;;;3.00;;
19599;SDS011;9947;57.722;12.012;2022-11-20T02:14:19;3.60;;;3.30;;
19599;SDS011;9947;57.722;12.012;2022-11-20T02:16:48;4.30;;;3.20;;
19599;SDS011;9947;57.722;12.012;2022-11-20T02:19:17;3.97;;;3.00;;
19599;SDS011;9947;57.722;12.012;2022-11-20T02:21:52;3.30;;;2.80;;
19599;SDS011;9947;57.722;12.012;2022-11-20T02:24:27;4.53;;;3.50;;
19599;SDS011;9947;57.722;12.012;2022-11-20T02:26:56;4.60;;;3.40;;
19599;SDS011;9947;57.722;12.012;2022-11-20T02:29:26;3.37;;;3.07;;
19599;SDS011;9947;57.722;12.012;2022-11-20T02:31:57;3.10;;;2.80;;
19599;SDS011;9947;57.722;12.012;2022-11-20T02:34:26;3.23;;;2.90;;
19599;SDS011;9947;57.722;12.012;2022-11-20T02:36:53;5.63;;;3.40;;
19599;SDS011;9947;57.722;12.012;2022-11-20T02:39:21;3.10;;;2.77;;
19599;SDS011;9947;57.722;12.012;2022-11-20T02:41:53;5.23;;;3.33;;
19599;SDS011;9947;57.722;12.012;2022-11-20T02:44:21;3.30;;;3.00;;
19599;SDS011;9947;57.722;12.012;2022-11-20T02:46:47;3.67;;;3.27;;
19599;SDS011;9947;57.722;12.012;2022-11-20T02:49:14;4.97;;;3.27;;
19599;SDS011;9947;57.722;12.012;2022-11-20T02:51:41;4.13;;;3.43;;
19599;SDS011;9947;57.722;12.012;2022-11-20T02:54:08;5.47;;;3.63;;
19599;SDS011;9947;57.722;12.012;2022-11-20T02:56:37;3.50;;;3.20;;
19599;SDS011;9947;57.722;12.012;2022-11-20T02:59:05;3.27;;;3.07;;
19599;SDS011;9947;57.722;12.012;2022-11-20T03:01:32;3.03;;;2.73;;
19599;SDS011;9947;57.722;12.012;2022-11-20T03:03:59;3.87;;;3.30;;
19599;SDS011;9947;57.722;12.012;2022-11-20T03:06:26;3.97;;;3.30;;
19599;SDS011;9947;57.722;12.012;2022-11-20T03:08:53;3.50;;;3.20;;
19599;SDS011;9947;57.722;12.012;2022-11-20T03:11:20;4.63;;;3.50;;
19599;SDS011;9947;57.722;12.012;2022-11-20T03:13:47;3.47;;;3.17;;
19599;SDS011;9947;57.722;12.012;2022-11-20T03:16:16;3.67;;;3.37;;
19599;SDS011;9947;57.722;12.012;2022-11-20T03:18:44;3.77;;;3.40;;
19599;SDS011;9947;57.722;12.012;2022-11-20T03:21:11;3.83;;;3.27;;
19599;SDS011;9947;57.722;12.012;2022-11-20T03:23:40;3.90;;;3.50;;
19599;SDS011;9947;57.722;12.012;2022-11-20T03:26:10;7.10;;;3.60;;
19599;SDS011;9947;57.722;12.012;2022-11-20T03:28:38;4.93;;;3.50;;
19599;SDS011;9947;57.722;12.012;2022-11-20T03:31:07;5.67;;;3.53;;
19599;SDS011;9947;57.722;12.012;2022-11-20T03:33:36;3.67;;;3.37;;
19599;SDS011;9947;57.722;12.012;2022-11-20T03:36:04;4.50;;;3.30;;
19599;SDS011;9947;57.722;12.012;2022-11-20T03:38:32;3.87;;;3.47;;
19599;SDS011;9947;57.722;12.012;2022-11-20T03:41:00;6.83;;;3.70;;
19599;SDS011;9947;57.722;12.012;2022-11-20T03:43:27;3.80;;;3.40;;
19599;SDS011;9947;57.722;12.012;2022-11-20T03:45:54;4.00;;;3.60;;
19599;SDS011;9947;57.722;12.012;2022-11-20T03:48:21;4.00;;;3.50;;
19599;SDS011;9947;57.722;12.012;2022-11-20T03:50:49;3.97;;;3.57;;
19599;SDS011;9947;57.722;12.012;2022-11-20T03:53:16;4.70;;;3.50;;
19599;SDS011;9947;57.722;12.012;2022-11-20T03:55:43;6.70;;;3.63;;
19599;SDS011;9947;57.722;12.012;2022-11-20T03:58:09;4.37;;;3.73;;
19599;SDS011;9947;57.722;12.012;2022-11-20T04:00:36;6.80;;;3.50;;
19599;SDS011;9947;57.722;12.012;2022-11-20T04:03:03;4.83;;;3.80;;
19599;SDS011;9947;57.722;12.012;2022-11-20T04:05:30;3.97;;;3.53;;
19599;SDS011;9947;57.722;12.012;2022-11-20T04:08:00;3.63;;;3.33;;
19599;SDS011;9947;57.722;12.012;2022-11-20T04:10:28;4.03;;;3.53;;
19599;SDS011;9947;57.722;12.012;2022-11-20T04:12:54;3.87;;;3.50;;
19599;SDS011;9947;57.722;12.012;2022-11-20T04:15:21;3.70;;;3.40;;
19599;SDS011;9947;57.722;12.012;2022-11-20T04:17:48;5.40;;;4.17;;
19599;SDS011;9947;57.722;12.012;2022-11-20T04:20:15;5.77;;;3.77;;
19599;SDS011;9947;57.722;12.012;2022-11-20T04:22:41;5.27;;;3.70;;
19599;SDS011;9947;57.722;12.012;2022-11-20T04:25:10;5.13;;;4.10;;
19599;SDS011;9947;57.722;12.012;2022-11-20T04:27:36;4.17;;;3.63;;
19599;SDS011;9947;57.722;12.012;2022-11-20T04:30:03;5.57;;;3.80;;
19599;SDS011;9947;57.722;12.012;2022-11-20T04:32:31;6.27;;;3.90;;
19599;SDS011;9947;57.722;12.012;2022-11-20T04:34:57;4.80;;;4.07;;
19599;SDS011;9947;57.722;12.012;2022-11-20T04:37:24;4.70;;;3.87;;
19599;SDS011;9947;57.722;12.012;2022-11-20T04:39:51;4.70;;;4.30;;
19599;SDS011;9947;57.722;12.012;2022-11-20T04:42:19;4.07;;;3.70;;
19599;SDS011;9947;57.722;12.012;2022-11-20T04:44:56;5.10;;;3.80;;
19599;SDS011;9947;57.722;12.012;2022-11-20T04:47:23;4.40;;;3.87;;
19599;SDS011;9947;57.722;12.012;2022-11-20T04:49:50;3.77;;;3.47;;
19599;SDS011;9947;57.722;12.012;2022-11-20T04:52:17;4.77;;;4.20;;
19599;SDS011;9947;57.722;12.012;2022-11-20T04:54:44;5.20;;;4.20;;
19599;SDS011;9947;57.722;12.012;2022-11-20T04:57:12;5.80;;;3.33;;
19599;SDS011;9947;57.722;12.012;2022-11-20T04:59:41;4.80;;;3.70;;
19599;SDS011;9947;57.722;12.012;2022-11-20T05:02:07;5.00;;;3.87;;
19599;SDS011;9947;57.722;12.012;2022-11-20T05:04:34;4.53;;;3.70;;
19599;SDS011;9947;57.722;12.012;2022-11-20T05:07:01;3.73;;;3.20;;
19599;SDS011;9947;57.722;12.012;2022-11-20T05:09:28;4.03;;;3.50;;
19599;SDS011;9947;57.722;12.012;2022-11-20T05:11:55;4.70;;;4.20;;
19599;SDS011;9947;57.722;12.012;2022-11-20T05:14:23;4.33;;;3.93;;
19599;SDS011;9947;57.722;12.012;2022-11-20T05:16:51;3.73;;;3.43;;
19599;SDS011;9947;57.722;12.012;2022-11-20T05:19:17;5.03;;;3.37;;
19599;SDS011;9947;57.722;12.012;2022-11-20T05:21:44;5.90;;;3.60;;
19599;SDS011;9947;57.722;12.012;2022-11-20T05:24:11;4.77;;;3.70;;
19599;SDS011;9947;57.722;12.012;2022-11-20T05:26:38;4.50;;;3.50;;
19599;SDS011;9947;57.722;12.012;2022-11-20T05:29:04;4.03;;;3.27;;
19599;SDS011;9947;57.722;12.012;2022-11-20T05:31:31;4.30;;;3.70;;
19599;SDS011;9947;57.722;12.012;2022-11-20T05:33:59;4.60;;;3.70;;
19599;SDS011;9947;57.722;12.012;2022-11-20T05:36:26;4.53;;;3.70;;
19599;SDS011;9947;57.722;12.012;2022-11-20T05:38:53;4.07;;;3.67;;
19599;SDS011;9947;57.722;12.012;2022-11-20T05:41:20;3.87;;;3.00;;
19599;SDS011;9947;57.722;12.012;2022-11-20T05:43:47;4.97;;;3.80;;
19599;SDS011;9947;57.722;12.012;2022-11-20T05:46:16;3.63;;;3.30;;
19599;SDS011;9947;57.722;12.012;2022-11-20T05:48:46;7.20;;;3.50;;
19599;SDS011;9947;57.722;12.012;2022-11-20T05:51:15;3.30;;;3.00;;
19599;SDS011;9947;57.722;12.012;2022-11-20T05:53:43;5.07;;;3.70;;
19599;SDS011;9947;57.722;12.012;2022-11-20T05:56:11;5.03;;;3.47;;
19599;SDS011;9947;57.722;12.012;2022-11-20T05:58:39;6.00;;;3.73;;
19599;SDS011;9947;57.722;12.012;2022-11-20T06:01:07;6.33;;;3.30;;
19599;SDS011;9947;57.722;12.012;2022-11-20T06:03:35;4.03;;;3.20;;
19599;SDS011;9947;57.722;12.012;2022-11-20T06:06:02;3.33;;;3.03;;
19599;SDS011;9947;57.722;12.012;2022-11-20T06:08:32;4.97;;;3.40;;
19599;SDS011;9947;57.722;12.012;2022-11-20T06:11:02;3.60;;;3.30;;
19599;SDS011;9947;57.722;12.012;2022-11-20T06:13:29;3.03;;;2.73;;
19599;SDS011;9947;57.722;12.012;2022-11-20T06:15:56;4.97;;;3.30;;
19599;SDS011;9947;57.722;12.012;2022-11-20T06:18:23;3.87;;;3.33;;
19599;SDS011;9947;57.722;12.012;2022-11-20T06:20:58;5.17;;;2.93;;
19599;SDS011;9947;57.722;12.012;2022-11-20T06:23:27;5.43;;;3.70;;
19599;SDS011;9947;57.722;12.012;2022-11-20T06:25:56;3.83;;;3.53;;
19599;SDS011;9947;57.722;12.012;2022-11-20T06:28:22;4.13;;;3.37;;
19599;SDS011;9947;57.722;12.012;2022-11-20T06:30:49;4.20;;;3.43;;
19599;SDS011;9947;57.722;12.012;2022-11-20T06:33:16;4.40;;;3.20;;
19599;SDS011;9947;57.722;12.012;2022-11-20T06:35:43;4.00;;;3.60;;
19599;SDS011;9947;57.722;12.012;2022-11-20T06:38:10;4.53;;;3.73;;
19599;SDS011;9947;57.722;12.012;2022-11-20T06:40:39;4.00;;;3.60;;
19599;SDS011;9947;57.722;12.012;2022-11-20T06:43:07;4.77;;;3.77;;
19599;SDS011;9947;57.722;12.012;2022-11-20T06:45:34;4.03;;;3.50;;
19599;SDS011;9947;57.722;12.012;2022-11-20T06:48:01;4.10;;;3.20;;
19599;SDS011;9947;57.722;12.012;2022-11-20T06:50:29;5.27;;;3.67;;
19599;SDS011;9947;57.722;12.012;2022-11-20T06:52:55;3.90;;;3.50;;
19599;SDS011;9947;57.722;12.012;2022-11-20T06:55:22;9.23;;;3.60;;
19599;SDS011;9947;57.722;12.012;2022-11-20T06:57:50;5.93;;;3.60;;
19599;SDS011;9947;57.722;12.012;2022-11-20T07:00:19;5.93;;;3.70;;
19599;SDS011;9947;57.722;12.012;2022-11-20T07:02:45;4.23;;;3.57;;
19599;SDS011;9947;57.722;12.012;2022-11-20T07:05:12;4.60;;;3.60;;
19599;SDS011;9947;57.722;12.012;2022-11-20T07:07:39;3.10;;;2.80;;
19599;SDS011;9947;57.722;12.012;2022-11-20T07:10:06;4.43;;;3.60;;
19599;SDS011;9947;57.722;12.012;2022-11-20T07:12:33;5.97;;;3.93;;
19599;SDS011;9947;57.722;12.012;2022-11-20T07:15:03;4.67;;;3.57;;
19599;SDS011;9947;57.722;12.012;2022-11-20T07:17:34;5.10;;;2.97;;
19599;SDS011;9947;57.722;12.012;2022-11-20T07:20:01;3.73;;;3.30;;
19599;SDS011;9947;57.722;12.012;2022-11-20T07:22:28;3.37;;;3.07;;
19599;SDS011;9947;57.722;12.012;2022-11-20T07:24:55;5.07;;;3.10;;
19599;SDS011;9947;57.722;12.012;2022-11-20T07:27:21;3.80;;;3.23;;
19599;SDS011;9947;57.722;12.012;2022-11-20T07:29:48;4.90;;;3.30;;
19599;SDS011;9947;57.722;12.012;2022-11-20T07:32:15;3.50;;;3.20;;
19599;SDS011;9947;57.722;12.012;2022-11-20T07:34:43;3.30;;;3.00;;
19599;SDS011;9947;57.722;12.012;2022-11-20T07:37:10;4.40;;;3.30;;
19599;SDS011;9947;57.722;12.012;2022-11-20T07:39:36;6.77;;;3.40;;
19599;SDS011;9947;57.722;12.012;2022-11-20T07:42:03;3.57;;;3.07;;
19599;SDS011;9947;57.722;12.012;2022-11-20T07:44:30;3.40;;;3.10;;
19599;SDS011;9947;57.722;12.012;2022-11-20T07:46:57;6.30;;;3.47;;
19599;SDS011;9947;57.722;12.012;2022-11-20T07:49:23;5.33;;;3.30;;
19599;SDS011;9947;57.722;12.012;2022-11-20T07:51:52;3.93;;;3.20;;
19599;SDS011;9947;57.722;12.012;2022-11-20T07:54:19;3.43;;;2.90;;
19599;SDS011;9947;57.722;12.012;2022-11-20T07:56:46;3.40;;;3.10;;
19599;SDS011;9947;57.722;12.012;2022-11-20T07:59:15;3.57;;;3.20;;
19599;SDS011;9947;57.722;12.012;2022-11-20T08:01:42;4.50;;;2.97;;
19599;SDS011;9947;57.722;12.012;2022-11-20T08:04:09;3.50;;;2.67;;
19599;SDS011;9947;57.722;12.012;2022-11-20T08:06:36;3.13;;;2.83;;
19599;SDS011;9947;57.722;12.012;2022-11-20T08:09:04;4.43;;;3.47;;
19599;SDS011;9947;57.722;12.012;2022-11-20T08:11:31;4.97;;;3.50;;
19599;SDS011;9947;57.722;12.012;2022-11-20T08:14:15;5.37;;;3.57;;
19599;SDS011;9947;57.722;12.012;2022-11-20T08:16:43;3.57;;;3.10;;
19599;SDS011;9947;57.722;12.012;2022-11-20T08:19:12;3.77;;;3.40;;
19599;SDS011;9947;57.722;12.012;2022-11-20T08:21:39;5.57;;;3.50;;
19599;SDS011;9947;57.722;12.012;2022-11-20T08:24:08;6.27;;;3.00;;
19599;SDS011;9947;57.722;12.012;2022-11-20T08:26:35;3.53;;;3.17;;
19599;SDS011;9947;57.722;12.012;2022-11-20T08:29:03;4.00;;;3.20;;
19599;SDS011;9947;57.722;12.012;2022-11-20T08:31:31;4.73;;;3.37;;
19599;SDS011;9947;57.722;12.012;2022-11-20T08:33:58;3.53;;;3.23;;
19599;SDS011;9947;57.722;12.012;2022-11-20T08:36:25;4.37;;;3.27;;
19599;SDS011;9947;57.722;12.012;2022-11-20T08:38:52;3.30;;;3.00;;
19599;SDS011;9947;57.722;12.012;2022-11-20T08:41:22;3.33;;;3.03;;
19599;SDS011;9947;57.722;12.012;2022-11-20T08:43:53;3.17;;;2.57;;
19599;SDS011;9947;57.722;12.012;2022-11-20T08:46:22;4.60;;;3.20;;
19599;SDS011;9947;57.722;12.012;2022-11-20T08:48:50;4.23;;;2.60;;
19599;SDS011;9947;57.722;12.012;2022-11-20T08:51:17;3.17;;;2.87;;
19599;SDS011;9947;57.722;12.012;2022-11-20T08:53:45;4.17;;;2.90;;
19599;SDS011;9947;57.722;12.012;2022-11-20T08:56:13;3.20;;;2.90;;
19599;SDS011;9947;57.722;12.012;2022-11-20T08:58:41;3.07;;;2.80;;
19599;SDS011;9947;57.722;12.012;2022-11-20T09:01:08;3.03;;;2.77;;
19599;SDS011;9947;57.722;12.012;2022-11-20T09:03:35;3.67;;;3.03;;
19599;SDS011;9947;57.722;12.012;2022-11-20T09:06:03;3.00;;;2.70;;
19599;SDS011;9947;57.722;12.012;2022-11-20T09:08:31;3.50;;;2.63;;
19599;SDS011;9947;57.722;12.012;2022-11-20T09:10:59;3.57;;;2.80;;
19599;SDS011;9947;57.722;12.012;2022-11-20T09:13:26;3.30;;;3.00;;
19599;SDS011;9947;57.722;12.012;2022-11-20T09:15:56;6.93;;;2.63;;
19599;SDS011;9947;57.722;12.012;2022-11-20T09:18:26;3.03;;;2.80;;
19599;SDS011;9947;57.722;12.012;2022-11-20T09:20:56;2.80;;;2.60;;
19599;SDS011;9947;57.722;12.012;2022-11-20T09:23:23;3.10;;;2.80;;
19599;SDS011;9947;57.722;12.012;2022-11-20T09:25:50;5.07;;;3.07;;
19599;SDS011;9947;57.722;12.012;2022-11-20T09:28:17;2.90;;;2.60;;
19599;SDS011;9947;57.722;12.012;2022-11-20T09:30:44;4.73;;;3.03;;
19599;SDS011;9947;57.722;12.012;2022-11-20T09:33:12;4.40;;;3.00;;
19599;SDS011;9947;57.722;12.012;2022-11-20T09:35:41;2.70;;;2.50;;
19599;SDS011;9947;57.722;12.012;2022-11-20T09:38:08;3.30;;;2.83;;
19599;SDS011;9947;57.722;12.012;2022-11-20T09:40:38;4.00;;;3.00;;
19599;SDS011;9947;57.722;12.012;2022-11-20T09:43:07;3.47;;;3.10;;
19599;SDS011;9947;57.722;12.012;2022-11-20T09:45:50;3.63;;;3.30;;
19599;SDS011;9947;57.722;12.012;2022-11-20T09:48:44;4.60;;;2.70;;
19599;SDS011;9947;57.722;12.012;2022-11-20T09:51:23;2.70;;;2.50;;
19599;SDS011;9947;57.722;12.012;2022-11-20T09:54:02;3.10;;;2.60;;
19599;SDS011;9947;57.722;12.012;2022-11-20T09:56:39;2.97;;;2.60;;
19599;SDS011;9947;57.722;12.012;2022-11-20T09:59:12;4.03;;;2.80;;
19599;SDS011;9947;57.722;12.012;2022-11-20T10:01:48;3.67;;;2.90;;
19599;SDS011;9947;57.722;12.012;2022-11-20T10:04:16;4.10;;;2.60;;
19599;SDS011;9947;57.722;12.012;2022-11-20T10:06:49;2.40;;;2.20;;
19599;SDS011;9947;57.722;12.012;2022-11-20T10:09:23;4.63;;;2.50;;
19599;SDS011;9947;57.722;12.012;2022-11-20T10:12:01;3.50;;;2.70;;
19599;SDS011;9947;57.722;12.012;2022-11-20T10:14:40;2.80;;;2.50;;
19599;SDS011;9947;57.722;12.012;2022-11-20T10:17:16;2.53;;;2.33;;
19599;SDS011;9947;57.722;12.012;2022-11-20T10:19:56;2.80;;;2.50;;
19599;SDS011;9947;57.722;12.012;2022-11-20T10:22:43;2.60;;;2.40;;
19599;SDS011;9947;57.722;12.012;2022-11-20T10:25:27;3.40;;;2.43;;
19599;SDS011;9947;57.722;12.012;2022-11-20T10:28:16;3.80;;;2.70;;
19599;SDS011;9947;57.722;12.012;2022-11-20T10:30:50;2.60;;;2.40;;
19599;SDS011;9947;57.722;12.012;2022-11-20T10:33:23;3.57;;;2.80;;
19599;SDS011;9947;57.722;12.012;2022-11-20T10:35:54;2.83;;;2.63;;
19599;SDS011;9947;57.722;12.012;2022-11-20T10:38:32;2.60;;;2.40;;
19599;SDS011;9947;57.722;12.012;2022-11-20T10:41:07;2.40;;;2.20;;
19599;SDS011;9947;57.722;12.012;2022-11-20T10:43:52;2.57;;;2.37;;
19599;SDS011;9947;57.722;12.012;2022-11-20T10:46:30;2.60;;;2.40;;
19599;SDS011;9947;57.722;12.012;2022-11-20T10:49:04;2.50;;;2.20;;
19599;SDS011;9947;57.722;12.012;2022-11-20T10:51:39;3.30;;;2.40;;
19599;SDS011;9947;57.722;12.012;2022-11-20T10:54:18;3.10;;;2.80;;
19599;SDS011;9947;57.722;12.012;2022-11-20T10:56:55;2.43;;;2.20;;
19599;SDS011;9947;57.722;12.012;2022-11-20T10:59:35;2.63;;;2.20;;
19599;SDS011;9947;57.722;12.012;2022-11-20T11:02:22;2.27;;;2.10;;
19599;SDS011;9947;57.722;12.012;2022-11-20T11:04:50;2.30;;;2.10;;
19599;SDS011;9947;57.722;12.012;2022-11-20T11:07:20;2.53;;;2.33;;
19599;SDS011;9947;57.722;12.012;2022-11-20T11:09:52;2.53;;;2.33;;
19599;SDS011;9947;57.722;12.012;2022-11-20T11:12:19;2.40;;;2.20;;
19599;SDS011;9947;57.722;12.012;2022-11-20T11:14:49;2.93;;;2.37;;
19599;SDS011;9947;57.722;12.012;2022-11-20T11:17:20;2.43;;;2.33;;
19599;SDS011;9947;57.722;12.012;2022-11-20T11:22:29;2.83;;;2.30;;
19599;SDS011;9947;57.722;12.012;2022-11-20T11:24:58;3.00;;;2.10;;
19599;SDS011;9947;57.722;12.012;2022-11-20T11:27:25;2.50;;;2.30;;
19599;SDS011;9947;57.722;12.012;2022-11-20T11:30:01;2.03;;;1.93;;
19599;SDS011;9947;57.722;12.012;2022-11-20T11:32:30;2.43;;;2.23;;
19599;SDS011;9947;57.722;12.012;2022-11-20T11:35:00;2.30;;;2.10;;
19599;SDS011;9947;57.722;12.012;2022-11-20T11:37:32;4.27;;;2.40;;
19599;SDS011;9947;57.722;12.012;2022-11-20T11:40:01;5.07;;;2.37;;
19599;SDS011;9947;57.722;12.012;2022-11-20T11:42:29;2.23;;;2.03;;
19599;SDS011;9947;57.722;12.012;2022-11-20T11:44:58;2.53;;;2.30;;
19599;SDS011;9947;57.722;12.012;2022-11-20T11:47:31;2.20;;;2.00;;
19599;SDS011;9947;57.722;12.012;2022-11-20T11:50:07;2.97;;;2.30;;
19599;SDS011;9947;57.722;12.012;2022-11-20T11:52:44;2.00;;;1.90;;
19599;SDS011;9947;57.722;12.012;2022-11-20T11:55:17;2.93;;;2.23;;
19599;SDS011;9947;57.722;12.012;2022-11-20T11:57:49;2.53;;;2.30;;
19599;SDS011;9947;57.722;12.012;2022-11-20T12:00:21;2.47;;;2.23;;
19599;SDS011;9947;57.722;12.012;2022-11-20T12:02:53;4.80;;;2.37;;
19599;SDS011;9947;57.722;12.012;2022-11-20T12:05:28;2.20;;;2.00;;
19599;SDS011;9947;57.722;12.012;2022-11-20T12:08:04;2.43;;;2.23;;
19599;SDS011;9947;57.722;12.012;2022-11-20T12:10:40;2.40;;;2.23;;
19599;SDS011;9947;57.722;12.012;2022-11-20T12:13:15;1.80;;;1.70;;
19599;SDS011;9947;57.722;12.012;2022-11-20T12:15:52;2.20;;;2.10;;
19599;SDS011;9947;57.722;12.012;2022-11-20T12:18:20;3.57;;;2.10;;
19599;SDS011;9947;57.722;12.012;2022-11-20T12:20:50;4.67;;;2.47;;
19599;SDS011;9947;57.722;12.012;2022-11-20T12:23:30;4.83;;;2.40;;
19599;SDS011;9947;57.722;12.012;2022-11-20T12:26:06;3.70;;;2.40;;
19599;SDS011;9947;57.722;12.012;2022-11-20T12:28:43;5.37;;;2.73;;
19599;SDS011;9947;57.722;12.012;2022-11-20T12:31:23;4.13;;;2.70;;
19599;SDS011;9947;57.722;12.012;2022-11-20T12:34:12;2.63;;;2.37;;
19599;SDS011;9947;57.722;12.012;2022-11-20T12:37:00;2.30;;;2.20;;
19599;SDS011;9947;57.722;12.012;2022-11-20T12:39:37;2.80;;;2.50;;
19599;SDS011;9947;57.722;12.012;2022-11-20T12:42:16;2.53;;;2.33;;
19599;SDS011;9947;57.722;12.012;2022-11-20T12:45:24;2.30;;;2.20;;
19599;SDS011;9947;57.722;12.012;2022-11-20T12:51:19;3.43;;;2.20;;
19599;SDS011;9947;57.722;12.012;2022-11-20T12:54:06;2.60;;;2.10;;
19599;SDS011;9947;57.722;12.012;2022-11-20T12:56:58;1.67;;;1.60;;
19599;SDS011;9947;57.722;12.012;2022-11-20T12:59:33;3.23;;;2.20;;
19599;SDS011;9947;57.722;12.012;2022-11-20T13:02:19;2.23;;;2.03;;
19599;SDS011;9947;57.722;12.012;2022-11-20T13:07:54;2.07;;;1.97;;
19599;SDS011;9947;57.722;12.012;2022-11-20T13:10:25;4.93;;;2.30;;
19599;SDS011;9947;57.722;12.012;2022-11-20T13:13:00;4.27;;;2.10;;
19599;SDS011;9947;57.722;12.012;2022-11-20T13:15:44;2.40;;;2.20;;
19599;SDS011;9947;57.722;12.012;2022-11-20T13:18:17;2.57;;;2.20;;
19599;SDS011;9947;57.722;12.012;2022-11-20T13:20:45;3.63;;;2.10;;
19599;SDS011;9947;57.722;12.012;2022-11-20T13:23:22;2.10;;;1.90;;
19599;SDS011;9947;57.722;12.012;2022-11-20T13:26:02;2.57;;;2.37;;
19599;SDS011;9947;57.722;12.012;2022-11-20T13:28:31;3.57;;;2.30;;
19599;SDS011;9947;57.722;12.012;2022-11-20T13:31:01;2.37;;;2.00;;
19599;SDS011;9947;57.722;12.012;2022-11-20T13:33:51;4.57;;;2.40;;
19599;SDS011;9947;57.722;12.012;2022-11-20T13:36:23;2.53;;;2.20;;
19599;SDS011;9947;57.722;12.012;2022-11-20T13:38:54;3.37;;;2.63;;
19599;SDS011;9947;57.722;12.012;2022-11-20T13:41:28;3.80;;;2.40;;
19599;SDS011;9947;57.722;12.012;2022-11-20T13:44:10;3.17;;;2.20;;
19599;SDS011;9947;57.722;12.012;2022-11-20T13:46:43;2.53;;;2.33;;
19599;SDS011;9947;57.722;12.012;2022-11-20T13:49:17;3.10;;;2.33;;
19599;SDS011;9947;57.722;12.012;2022-11-20T13:51:48;3.87;;;2.50;;
19599;SDS011;9947;57.722;12.012;2022-11-20T13:54:40;2.97;;;2.40;;
19599;SDS011;9947;57.722;12.012;2022-11-20T14:00:25;3.90;;;2.70;;
19599;SDS011;9947;57.722;12.012;2022-11-20T14:03:05;2.60;;;2.40;;
19599;SDS011;9947;57.722;12.012;2022-11-20T14:05:38;3.60;;;2.70;;
19599;SDS011;9947;57.722;12.012;2022-11-20T14:08:17;4.60;;;2.43;;
19599;SDS011;9947;57.722;12.012;2022-11-20T14:10:52;4.80;;;2.80;;
19599;SDS011;9947;57.722;12.012;2022-11-20T14:13:29;2.87;;;2.63;;
19599;SDS011;9947;57.722;12.012;2022-11-20T14:15:57;2.50;;;2.30;;
19599;SDS011;9947;57.722;12.012;2022-11-20T14:18:26;3.33;;;2.70;;
19599;SDS011;9947;57.722;12.012;2022-11-20T14:20:54;4.87;;;2.57;;
19599;SDS011;9947;57.722;12.012;2022-11-20T14:23:25;2.83;;;2.40;;
19599;SDS011;9947;57.722;12.012;2022-11-20T14:25:52;2.50;;;2.30;;
19599;SDS011;9947;57.722;12.012;2022-11-20T14:28:21;3.10;;;2.50;;
19599;SDS011;9947;57.722;12.012;2022-11-20T14:30:52;3.03;;;2.77;;
19599;SDS011;9947;57.722;12.012;2022-11-20T14:33:22;5.43;;;2.70;;
19599;SDS011;9947;57.722;12.012;2022-11-20T14:35:52;2.67;;;2.47;;
19599;SDS011;9947;57.722;12.012;2022-11-20T14:38:21;4.40;;;2.43;;
19599;SDS011;9947;57.722;12.012;2022-11-20T14:40:51;2.60;;;2.30;;
19599;SDS011;9947;57.722;12.012;2022-11-20T14:43:19;3.87;;;2.20;;
19599;SDS011;9947;57.722;12.012;2022-11-20T14:45:50;4.80;;;3.03;;
19599;SDS011;9947;57.722;12.012;2022-11-20T14:48:25;3.73;;;2.70;;
19599;SDS011;9947;57.722;12.012;2022-11-20T14:50:56;4.27;;;2.70;;
19599;SDS011;9947;57.722;12.012;2022-11-20T14:53:23;3.07;;;2.63;;
19599;SDS011;9947;57.722;12.012;2022-11-20T14:55:54;3.83;;;3.00;;
19599;SDS011;9947;57.722;12.012;2022-11-20T14:58:23;4.57;;;3.23;;
19599;SDS011;9947;57.722;12.012;2022-11-20T15:00:55;4.27;;;3.00;;
19599;SDS011;9947;57.722;12.012;2022-11-20T15:03:30;3.80;;;2.70;;
19599;SDS011;9947;57.722;12.012;2022-11-20T15:05:57;4.93;;;2.80;;
19599;SDS011;9947;57.722;12.012;2022-11-20T15:08:24;5.17;;;2.63;;
19599;SDS011;9947;57.722;12.012;2022-11-20T15:10:51;3.73;;;3.00;;
19599;SDS011;9947;57.722;12.012;2022-11-20T15:13:23;3.13;;;2.70;;
19599;SDS011;9947;57.722;12.012;2022-11-20T15:15:53;3.60;;;2.40;;
19599;SDS011;9947;57.722;12.012;2022-11-20T15:18:21;3.33;;;2.50;;